Time;durP1;ratioP1;P1;durP2;ratioP2;P2;SDS_P1;SDS_P2;PMS_P1;PMS_P2;Temp;Humidity;BMP_temperature;BMP_pressure;BME280_temperature;BME280_humidity;BME280_pressure;Samples;Min_cycle;Max_cycle;Signal;HPM_P1;HPM_P2
2023/01/12 00:02:02;;;;;;;;;;;;;;;;;;4922582;29;19919;-84
2023/01/12 00:04:29;;;;;;;;;;;;;;;;;;4939839;29;20026;-86
2023/01/12 00:06:55;;;;;;;;;;;;;;;;;;4939984;29;19925;-86
2023/01/12 00:09:21;;;;;;;;;;;;;;;;;;4939748;29;19919;-86
2023/01/12 00:11:46;;;;;;;;;;;;;;;;;;4939567;29;19922;-84
2023/01/12 00:14:12;;;;;;;;;;;;;;;;;;4939296;29;19919;-85
2023/01/12 00:16:37;;;;;;;;;;;;;;;;;;4939962;29;19966;-86
2023/01/12 00:19:10;;;;;;;;;;;;;;;;;;4939572;29;19925;-86
2023/01/12 00:21:49;;;;;;;;;;;;;;;;;;4922237;29;19922;-86
2023/01/12 00:24:16;;;;;;;;;;;;;;;;;;4922232;29;19914;-87
2023/01/12 00:26:42;;;;;;;;;;;;;;;;;;4939538;29;19919;-87
2023/01/12 00:29:07;;;;;;;;;;;;;;;;;;4939795;29;19922;-84
2023/01/12 00:31:34;;;;;;;;;;;;;;;;;;4939433;29;19919;-86
2023/01/12 00:33:59;;;;;;;;;;;;;;;;;;4921857;29;19951;-85
2023/01/12 00:36:25;;;;;;;;;;;;;;;;;;4939244;29;20312;-86
2023/01/12 00:38:50;;;;;;;;;;;;;;;;;;4921992;29;19969;-87
2023/01/12 00:45:20;;;;;;;;;;;;;;;;;;4921833;29;19923;-86
2023/01/12 00:46:45;;;;;;;;;;;;;;;;;;4939235;29;19950;-87
2023/01/12 00:49:10;;;;;;;;;;;;;;;;;;4939247;29;19922;-84
2023/01/12 00:51:35;;;;;;;;;;;;;;;;;;4939011;29;19943;-86
2023/01/12 00:54:03;;;;;;;;;;;;;;;;;;4921524;29;20287;-87
2023/01/12 00:56:29;;;;;;;;;;;;;;;;;;4938759;29;19975;-84
2023/01/12 00:58:54;;;;;;;;;;;;;;;;;;4939095;29;19923;-86
2023/01/12 01:01:20;;;;;;;;;;;;;;;;;;4921489;29;19974;-86
2023/01/12 01:03:45;;;;;;;;;;;;;;;;;;4938490;29;19915;-85
2023/01/12 01:06:10;;;;;;;;;;;;;;;;;;4938097;29;19974;-85
2023/01/12 01:08:36;;;;;;;;;;;;;;;;;;4938399;29;19926;-85
2023/01/12 01:11:01;;;;;;;;;;;;;;;;;;4938367;29;19919;-87
2023/01/12 01:13:27;;;;;;;;;;;;;;;;;;4938258;29;20471;-87
2023/01/12 01:15:52;;;;;;;;;;;;;;;;;;4938523;29;19922;-85
2023/01/12 01:18:17;;;;;;;;;;;;;;;;;;4938161;29;19919;-84
2023/01/12 01:20:45;;;;;;;;;;;;;;;;;;4938268;29;20375;-85
2023/01/12 01:23:11;;;;;;;;;;;;;;;;;;4938076;29;20348;-87
2023/01/12 01:25:36;;;;;;;;;;;;;;;;;;4920920;29;19922;-88
2023/01/12 01:28:02;;;;;;;;;;;;;;;;;;4921176;29;19918;-86
2023/01/12 01:30:27;;;;;;;;;;;;;;;;;;4937929;29;19925;-84
2023/01/12 01:32:52;;;;;;;;;;;;;;;;;;4921188;29;20393;-84
2023/01/12 01:35:18;;;;;;;;;;;;;;;;;;4937909;29;19975;-87
2023/01/12 01:37:43;;;;;;;;;;;;;;;;;;4920708;29;19938;-85
2023/01/12 01:40:09;;;;;;;;;;;;;;;;;;4920828;29;20406;-88
2023/01/12 01:42:34;;;;;;;;;;;;;;;;;;4920232;29;19926;-84
2023/01/12 01:45:00;;;;;;;;;;;;;;;;;;4920770;29;19918;-89
2023/01/12 01:47:29;;;;;;;;;;;;;;;;;;4920442;29;19919;-89
2023/01/12 01:49:55;;;;;;;;;;;;;;;;;;4937717;29;19926;-84
2023/01/12 01:52:33;;;;;;;;;;;;;;;;;;4920476;29;19918;-86
2023/01/12 01:55:02;;;;;;;;;;;;;;;;;;4920472;29;20342;-84
2023/01/12 01:57:30;;;;;;;;;;;;;;;;;;4938028;29;20395;-85
2023/01/12 01:59:56;;;;;;;;;;;;;;;;;;4937929;29;19919;-86
2023/01/12 02:02:24;;;;;;;;;;;;;;;;;;4937997;29;19919;-85
2023/01/12 02:04:49;;;;;;;;;;;;;;;;;;4920190;29;20378;-86
2023/01/12 02:07:15;;;;;;;;;;;;;;;;;;4920294;29;20022;-86
2023/01/12 02:09:40;;;;;;;;;;;;;;;;;;4937520;29;19925;-85
2023/01/12 02:17:34;;;;;;;;;;;;;;;;;;4937598;29;20418;-85
2023/01/12 02:20:00;;;;;;;;;;;;;;;;;;4920295;29;19919;-87
2023/01/12 02:22:31;;;;;;;;;;;;;;;;;;4938289;29;19922;-84
2023/01/12 02:25:00;;;;;;;;;;;;;;;;;;4921512;29;20032;-87
2023/01/12 02:27:45;;;;;;;;;;;;;;;;;;4920874;29;20403;-86
2023/01/12 02:30:46;;;;;;;;;;;;;;;;;;4916607;29;19919;-85
2023/01/12 02:33:19;;;;;;;;;;;;;;;;;;4879621;29;19987;-85
2023/01/12 02:35:48;;;;;;;;;;;;;;;;;;4914911;29;19983;-85
2023/01/12 02:38:23;;;;;;;;;;;;;;;;;;4901134;29;19966;-87
2023/01/12 02:40:58;;;;;;;;;;;;;;;;;;4918464;29;19926;-85
2023/01/12 02:43:31;;;;;;;;;;;;;;;;;;4901016;29;19918;-88
2023/01/12 02:45:59;;;;;;;;;;;;;;;;;;4918611;29;19923;-84
2023/01/12 02:48:33;;;;;;;;;;;;;;;;;;4918719;29;19919;-84
2023/01/12 02:51:14;;;;;;;;;;;;;;;;;;4917873;29;20370;-85
2023/01/12 02:53:44;;;;;;;;;;;;;;;;;;4917763;29;19946;-88
2023/01/12 02:56:10;;;;;;;;;;;;;;;;;;4917693;29;20364;-88
2023/01/12 02:58:37;;;;;;;;;;;;;;;;;;4900689;29;19929;-87
2023/01/12 03:01:03;;;;;;;;;;;;;;;;;;4917885;29;20038;-86
2023/01/12 03:03:28;;;;;;;;;;;;;;;;;;4918482;29;19958;-88
2023/01/12 03:05:57;;;;;;;;;;;;;;;;;;4917707;29;19919;-89
2023/01/12 03:08:26;;;;;;;;;;;;;;;;;;4902621;29;19919;-88
2023/01/12 03:10:59;;;;;;;;;;;;;;;;;;4921638;29;19919;-88
2023/01/12 03:13:27;;;;;;;;;;;;;;;;;;4921677;29;19919;-86
2023/01/12 03:15:53;;;;;;;;;;;;;;;;;;4921612;29;19940;-88
2023/01/12 03:18:25;;;;;;;;;;;;;;;;;;4921513;29;19919;-86
2023/01/12 03:20:56;;;;;;;;;;;;;;;;;;4921545;29;19919;-88
2023/01/12 03:23:34;;;;;;;;;;;;;;;;;;4921804;29;20289;-88
2023/01/12 03:26:01;;;;;;;;;;;;;;;;;;4904538;29;19919;-88
2023/01/12 03:28:29;;;;;;;;;;;;;;;;;;4921502;29;19994;-89
2023/01/12 03:30:59;;;;;;;;;;;;;;;;;;4904397;29;20319;-88
2023/01/12 03:33:24;;;;;;;;;;;;;;;;;;4929642;29;19929;-87
2023/01/12 03:35:54;;;;;;;;;;;;;;;;;;4940375;29;19918;-89
2023/01/12 03:38:44;;;;;;;;;;;;;;;;;;4923149;29;19954;-88
2023/01/12 03:41:12;;;;;;;;;;;;;;;;;;4930184;29;19923;-85
2023/01/12 03:43:42;;;;;;;;;;;;;;;;;;4940069;29;19915;-87
2023/01/12 03:46:14;;;;;;;;;;;;;;;;;;4940169;29;19926;-87
2023/01/12 03:48:43;;;;;;;;;;;;;;;;;;4940094;29;19970;-86
2023/01/12 03:51:20;;;;;;;;;;;;;;;;;;4939989;29;20382;-88
2023/01/12 03:53:48;;;;;;;;;;;;;;;;;;4939874;29;19970;-87
2023/01/12 03:56:15;;;;;;;;;;;;;;;;;;4939711;29;19954;-86
2023/01/12 03:58:40;;;;;;;;;;;;;;;;;;4939853;29;19966;-88
2023/01/12 04:01:06;;;;;;;;;;;;;;;;;;4939767;29;20013;-87
2023/01/12 04:03:32;;;;;;;;;;;;;;;;;;4922604;29;20378;-86
2023/01/12 04:05:57;;;;;;;;;;;;;;;;;;4922539;29;19919;-86
2023/01/12 04:08:22;;;;;;;;;;;;;;;;;;4922462;29;19919;-87
2023/01/12 04:10:48;;;;;;;;;;;;;;;;;;4939562;29;19986;-88
2023/01/12 04:13:13;;;;;;;;;;;;;;;;;;4940400;29;19919;-88
2023/01/12 04:15:41;;;;;;;;;;;;;;;;;;4922914;29;19937;-86
2023/01/12 04:18:10;;;;;;;;;;;;;;;;;;4939442;29;19922;-88
2023/01/12 04:20:36;;;;;;;;;;;;;;;;;;4938193;29;19978;-86
2023/01/12 04:23:01;;;;;;;;;;;;;;;;;;4922172;29;20275;-87
2023/01/12 04:25:27;;;;;;;;;;;;;;;;;;4939610;29;19941;-88
2023/01/12 04:27:54;;;;;;;;;;;;;;;;;;4939638;29;19915;-88
2023/01/12 04:30:23;;;;;;;;;;;;;;;;;;4922111;29;19926;-87
2023/01/12 04:32:48;;;;;;;;;;;;;;;;;;4921874;29;20022;-87
2023/01/12 04:35:15;;;;;;;;;;;;;;;;;;4938915;29;19971;-87
2023/01/12 04:37:41;;;;;;;;;;;;;;;;;;4939013;29;19918;-87
2023/01/12 04:40:07;;;;;;;;;;;;;;;;;;4938860;29;19923;-86
2023/01/12 04:45:16;;;;;;;;;;;;;;;;;;4939279;29;19929;-86
2023/01/12 04:47:42;;;;;;;;;;;;;;;;;;4922025;29;19919;-88
2023/01/12 04:50:07;;;;;;;;;;;;;;;;;;4938975;29;19922;-87
2023/01/12 04:52:34;;;;;;;;;;;;;;;;;;4921597;29;19942;-87
2023/01/12 04:54:59;;;;;;;;;;;;;;;;;;4938757;29;19925;-86
2023/01/12 04:57:25;;;;;;;;;;;;;;;;;;4938640;29;19918;-87
2023/01/12 04:59:50;;;;;;;;;;;;;;;;;;4938526;29;19922;-87
2023/01/12 05:02:15;;;;;;;;;;;;;;;;;;4938927;29;19919;-88
2023/01/12 05:04:41;;;;;;;;;;;;;;;;;;4939330;29;20435;-88
2023/01/12 05:07:07;;;;;;;;;;;;;;;;;;4938954;29;20355;-86
2023/01/12 05:12:16;;;;;;;;;;;;;;;;;;4938868;29;19926;-86
2023/01/12 05:14:41;;;;;;;;;;;;;;;;;;4938954;29;19919;-85
2023/01/12 05:17:07;;;;;;;;;;;;;;;;;;4921266;29;19923;-88
2023/01/12 05:19:32;;;;;;;;;;;;;;;;;;4921380;29;19965;-86
2023/01/12 05:21:58;;;;;;;;;;;;;;;;;;4938629;29;19918;-86
2023/01/12 05:24:23;;;;;;;;;;;;;;;;;;4938615;29;19919;-87
2023/01/12 05:26:48;;;;;;;;;;;;;;;;;;4938063;29;20005;-87
2023/01/12 05:29:14;;;;;;;;;;;;;;;;;;4920793;29;19918;-87
2023/01/12 05:31:39;;;;;;;;;;;;;;;;;;4921204;29;19923;-85
2023/01/12 05:34:05;;;;;;;;;;;;;;;;;;4937307;29;19922;-86
2023/01/12 05:36:30;;;;;;;;;;;;;;;;;;4920288;29;20522;-85
2023/01/12 05:38:55;;;;;;;;;;;;;;;;;;4937287;29;19926;-85
2023/01/12 05:41:21;;;;;;;;;;;;;;;;;;4937148;29;20013;-84
2023/01/12 05:43:50;;;;;;;;;;;;;;;;;;4937156;29;19922;-87
2023/01/12 05:46:20;;;;;;;;;;;;;;;;;;4920245;29;19919;-84
2023/01/12 05:48:46;;;;;;;;;;;;;;;;;;4937722;29;20383;-85
2023/01/12 05:51:12;;;;;;;;;;;;;;;;;;4937681;29;20006;-83
2023/01/12 05:53:37;;;;;;;;;;;;;;;;;;4937702;29;19919;-84
2023/01/12 05:56:07;;;;;;;;;;;;;;;;;;4920830;29;20286;-85
2023/01/12 05:58:33;;;;;;;;;;;;;;;;;;4920400;29;20327;-85
2023/01/12 06:00:58;;;;;;;;;;;;;;;;;;4937409;29;19919;-83
2023/01/12 06:03:23;;;;;;;;;;;;;;;;;;4920426;29;19922;-84
2023/01/12 06:05:53;;;;;;;;;;;;;;;;;;4937521;29;19926;-85
2023/01/12 06:08:18;;;;;;;;;;;;;;;;;;4937340;29;20256;-84
2023/01/12 06:10:44;;;;;;;;;;;;;;;;;;4920174;29;20030;-83
2023/01/12 06:15:58;;;;;;;;;;;;;;;;;;4927006;29;19923;-84
2023/01/12 06:18:24;;;;;;;;;;;;;;;;;;4930818;29;19926;-85
2023/01/12 06:20:49;;;;;;;;;;;;;;;;;;4906409;29;19919;-87
2023/01/12 06:23:15;;;;;;;;;;;;;;;;;;4918734;29;20386;-87
2023/01/12 06:25:40;;;;;;;;;;;;;;;;;;4901326;29;19955;-85
2023/01/12 06:28:05;;;;;;;;;;;;;;;;;;4918108;29;19975;-86
2023/01/12 06:30:32;;;;;;;;;;;;;;;;;;4901274;29;19942;-85
2023/01/12 06:33:00;;;;;;;;;;;;;;;;;;4918042;29;19974;-86
2023/01/12 06:35:25;;;;;;;;;;;;;;;;;;4917905;29;19919;-86
2023/01/12 06:37:54;;;;;;;;;;;;;;;;;;4918245;29;20292;-85
2023/01/12 06:40:19;;;;;;;;;;;;;;;;;;4900984;29;19926;-85
2023/01/12 06:42:45;;;;;;;;;;;;;;;;;;4917377;29;20296;-85
2023/01/12 06:45:11;;;;;;;;;;;;;;;;;;4917994;29;19919;-86
2023/01/12 06:47:43;;;;;;;;;;;;;;;;;;4918220;29;20021;-84
2023/01/12 06:50:09;;;;;;;;;;;;;;;;;;4917923;29;19919;-85
2023/01/12 06:52:35;;;;;;;;;;;;;;;;;;4918025;29;20268;-87
2023/01/12 06:55:00;;;;;;;;;;;;;;;;;;4900959;29;19919;-85
2023/01/12 06:57:25;;;;;;;;;;;;;;;;;;4918368;29;19919;-86
2023/01/12 06:59:51;;;;;;;;;;;;;;;;;;4900756;29;20202;-85
2023/01/12 07:02:16;;;;;;;;;;;;;;;;;;4917969;29;20311;-87
2023/01/12 07:04:42;;;;;;;;;;;;;;;;;;4900772;29;19958;-86
2023/01/12 07:07:08;;;;;;;;;;;;;;;;;;4917762;29;19948;-86
2023/01/12 07:09:33;;;;;;;;;;;;;;;;;;4917586;29;19974;-86
2023/01/12 07:11:58;;;;;;;;;;;;;;;;;;4917739;29;19926;-86
2023/01/12 07:14:24;;;;;;;;;;;;;;;;;;4900784;29;19926;-88
2023/01/12 07:16:49;;;;;;;;;;;;;;;;;;4917876;29;20351;-84
2023/01/12 07:19:15;;;;;;;;;;;;;;;;;;4917515;29;19926;-84
2023/01/12 07:21:40;;;;;;;;;;;;;;;;;;4917882;29;19919;-85
2023/01/12 07:24:05;;;;;;;;;;;;;;;;;;4917738;29;20440;-85
2023/01/12 07:26:31;;;;;;;;;;;;;;;;;;4917589;29;20006;-84
2023/01/12 07:28:56;;;;;;;;;;;;;;;;;;4917535;29;19971;-85
2023/01/12 07:31:22;;;;;;;;;;;;;;;;;;4918162;29;19919;-85
2023/01/12 07:33:50;;;;;;;;;;;;;;;;;;4917389;29;19979;-85
2023/01/12 07:36:15;;;;;;;;;;;;;;;;;;4917519;29;20002;-84
2023/01/12 07:38:42;;;;;;;;;;;;;;;;;;4900356;29;20017;-84
2023/01/12 07:42:22;;;;;;;;;;;;;;;;;;4917546;29;20006;-84
2023/01/12 07:43:53;;;;;;;;;;;;;;;;;;4917153;29;20361;-84
2023/01/12 07:46:18;;;;;;;;;;;;;;;;;;4917462;29;19962;-84
2023/01/12 07:48:45;;;;;;;;;;;;;;;;;;4917514;29;19966;-84
2023/01/12 07:51:10;;;;;;;;;;;;;;;;;;4917251;29;19920;-85
2023/01/12 07:53:36;;;;;;;;;;;;;;;;;;4917624;29;19923;-84
2023/01/12 07:56:01;;;;;;;;;;;;;;;;;;4920629;29;19919;-85
2023/01/12 07:58:29;;;;;;;;;;;;;;;;;;4920633;29;20295;-85
2023/01/12 08:00:57;;;;;;;;;;;;;;;;;;4920601;29;19919;-84
2023/01/12 08:03:22;;;;;;;;;;;;;;;;;;4920915;29;19919;-83
2023/01/12 08:05:48;;;;;;;;;;;;;;;;;;4903616;29;20014;-84
2023/01/12 08:08:13;;;;;;;;;;;;;;;;;;4920564;29;19926;-84
2023/01/12 08:10:39;;;;;;;;;;;;;;;;;;4920689;29;19965;-85
2023/01/12 08:13:05;;;;;;;;;;;;;;;;;;4920742;29;19919;-86
2023/01/12 08:15:32;;;;;;;;;;;;;;;;;;4920466;29;19962;-84
2023/01/12 08:18:00;;;;;;;;;;;;;;;;;;4920305;29;19919;-84
2023/01/12 08:20:28;;;;;;;;;;;;;;;;;;4903416;29;19919;-84
2023/01/12 08:22:57;;;;;;;;;;;;;;;;;;4903245;29;19915;-84
2023/01/12 08:25:29;;;;;;;;;;;;;;;;;;4920037;29;19926;-84
2023/01/12 08:27:57;;;;;;;;;;;;;;;;;;4903321;29;20276;-84
2023/01/12 08:30:24;;;;;;;;;;;;;;;;;;4920069;29;19920;-84
2023/01/12 08:32:50;;;;;;;;;;;;;;;;;;4919989;29;19930;-83
2023/01/12 08:35:18;;;;;;;;;;;;;;;;;;4920033;29;20280;-84
2023/01/12 08:37:43;;;;;;;;;;;;;;;;;;4903135;29;19919;-86
2023/01/12 08:40:09;;;;;;;;;;;;;;;;;;4918757;29;19926;-84
2023/01/12 08:42:34;;;;;;;;;;;;;;;;;;4919782;29;20003;-84
2023/01/12 08:45:00;;;;;;;;;;;;;;;;;;4919912;29;20291;-86
2023/01/12 08:47:27;;;;;;;;;;;;;;;;;;4919891;29;20367;-84
2023/01/12 08:49:56;;;;;;;;;;;;;;;;;;4919850;29;19985;-85
2023/01/12 08:52:21;;;;;;;;;;;;;;;;;;4919706;29;19923;-84
2023/01/12 08:54:47;;;;;;;;;;;;;;;;;;4919780;29;19923;-84
2023/01/12 08:57:15;;;;;;;;;;;;;;;;;;4920056;29;20018;-85
2023/01/12 08:59:40;;;;;;;;;;;;;;;;;;4920225;29;19926;-84
2023/01/12 09:02:05;;;;;;;;;;;;;;;;;;4919810;29;19919;-84
2023/01/12 09:04:31;;;;;;;;;;;;;;;;;;4903803;29;20283;-86
2023/01/12 09:06:56;;;;;;;;;;;;;;;;;;4919405;29;19923;-85
2023/01/12 09:09:22;;;;;;;;;;;;;;;;;;4919880;29;19926;-84
2023/01/12 09:11:48;;;;;;;;;;;;;;;;;;4919520;29;19919;-85
2023/01/12 09:14:14;;;;;;;;;;;;;;;;;;4919096;29;19971;-84
2023/01/12 09:16:40;;;;;;;;;;;;;;;;;;4902401;29;19925;-85
2023/01/12 09:19:05;;;;;;;;;;;;;;;;;;4919058;29;20358;-84
2023/01/12 09:21:31;;;;;;;;;;;;;;;;;;4902317;29;19919;-84
2023/01/12 09:23:56;;;;;;;;;;;;;;;;;;4919197;29;19919;-85
2023/01/12 09:26:27;;;;;;;;;;;;;;;;;;4919223;29;19943;-84
2023/01/12 09:28:52;;;;;;;;;;;;;;;;;;4902488;29;20278;-84
2023/01/12 09:31:19;;;;;;;;;;;;;;;;;;4902049;29;19919;-84
2023/01/12 09:33:45;;;;;;;;;;;;;;;;;;4918832;29;19923;-84
2023/01/12 09:36:15;;;;;;;;;;;;;;;;;;4919232;29;19919;-85
2023/01/12 09:38:41;;;;;;;;;;;;;;;;;;4919112;29;19926;-85
2023/01/12 09:46:58;;;;;;;;;;;;;;;;;;4919381;29;19948;-85
2023/01/12 09:49:25;;;;;;;;;;;;;;;;;;4918677;29;20340;-84
2023/01/12 09:52:17;;;;;;;;;;;;;;;;;;4918825;29;19920;-85
2023/01/12 09:54:45;;;;;;;;;;;;;;;;;;4917671;29;19926;-86
2023/01/12 09:57:29;;;;;;;;;;;;;;;;;;4919448;29;20451;-85
2023/01/12 09:59:57;;;;;;;;;;;;;;;;;;4917728;29;19919;-85
2023/01/12 10:02:23;;;;;;;;;;;;;;;;;;4922167;29;20308;-86
2023/01/12 10:04:49;;;;;;;;;;;;;;;;;;4929013;29;19919;-85
2023/01/12 10:07:15;;;;;;;;;;;;;;;;;;4936349;29;19970;-85
2023/01/12 10:09:41;;;;;;;;;;;;;;;;;;4931467;29;19919;-85
2023/01/12 10:12:16;;;;;;;;;;;;;;;;;;4918619;29;19970;-87
2023/01/12 10:14:44;;;;;;;;;;;;;;;;;;4918563;29;19982;-86
2023/01/12 10:17:13;;;;;;;;;;;;;;;;;;4918429;29;19919;-86
2023/01/12 10:19:57;;;;;;;;;;;;;;;;;;4918215;29;19919;-87
2023/01/12 10:22:36;;;;;;;;;;;;;;;;;;4917161;29;20343;-85
2023/01/12 10:25:11;;;;;;;;;;;;;;;;;;4918323;29;19923;-85
2023/01/12 10:27:39;;;;;;;;;;;;;;;;;;4918291;29;20314;-86
2023/01/12 10:30:10;;;;;;;;;;;;;;;;;;4918196;29;19919;-87
2023/01/12 10:32:36;;;;;;;;;;;;;;;;;;4918088;29;20395;-87
2023/01/12 10:35:01;;;;;;;;;;;;;;;;;;4918294;29;19971;-87
2023/01/12 10:37:27;;;;;;;;;;;;;;;;;;4917940;29;19923;-84
2023/01/12 10:39:52;;;;;;;;;;;;;;;;;;4917908;29;19923;-84
2023/01/12 10:45:09;;;;;;;;;;;;;;;;;;4918490;29;20486;-85
2023/01/12 10:47:34;;;;;;;;;;;;;;;;;;4917790;29;20371;-85
2023/01/12 10:50:20;;;;;;;;;;;;;;;;;;4900880;29;19926;-85
2023/01/12 10:52:45;;;;;;;;;;;;;;;;;;4917576;29;19923;-86
2023/01/12 10:55:21;;;;;;;;;;;;;;;;;;4917976;29;19919;-85
2023/01/12 10:57:47;;;;;;;;;;;;;;;;;;4900885;29;19923;-85
2023/01/12 11:00:23;;;;;;;;;;;;;;;;;;4918132;29;19926;-86
2023/01/12 11:02:49;;;;;;;;;;;;;;;;;;4917725;29;19915;-86
2023/01/12 11:05:40;;;;;;;;;;;;;;;;;;4917928;29;20344;-85
2023/01/12 11:08:22;;;;;;;;;;;;;;;;;;4916836;29;19915;-86
2023/01/12 11:10:47;;;;;;;;;;;;;;;;;;4900617;29;19950;-85
2023/01/12 11:13:24;;;;;;;;;;;;;;;;;;4917927;29;19920;-85
2023/01/12 11:16:12;;;;;;;;;;;;;;;;;;4917930;29;19915;-85
2023/01/12 11:18:41;;;;;;;;;;;;;;;;;;4914416;29;19966;-85
2023/01/12 11:21:09;;;;;;;;;;;;;;;;;;4900422;29;19945;-86
2023/01/12 11:23:38;;;;;;;;;;;;;;;;;;4900510;29;19919;-86
2023/01/12 11:26:08;;;;;;;;;;;;;;;;;;4917531;29;19969;-85
2023/01/12 11:28:39;;;;;;;;;;;;;;;;;;4918002;29;19919;-85
2023/01/12 11:31:10;;;;;;;;;;;;;;;;;;4921391;29;19948;-87
2023/01/12 11:33:43;;;;;;;;;;;;;;;;;;4921029;29;19927;-85
2023/01/12 11:36:24;;;;;;;;;;;;;;;;;;4921581;29;19930;-84
2023/01/12 11:38:51;;;;;;;;;;;;;;;;;;4921374;29;19948;-85
2023/01/12 11:41:21;;;;;;;;;;;;;;;;;;4921044;29;20394;-86
2023/01/12 11:44:05;;;;;;;;;;;;;;;;;;4921410;29;20336;-85
2023/01/12 11:46:41;;;;;;;;;;;;;;;;;;4921327;29;19919;-86
2023/01/12 11:49:06;;;;;;;;;;;;;;;;;;4903993;29;19918;-85
2023/01/12 11:51:31;;;;;;;;;;;;;;;;;;4920987;29;19919;-86
2023/01/12 11:53:57;;;;;;;;;;;;;;;;;;4921190;29;19926;-85
2023/01/12 11:56:31;;;;;;;;;;;;;;;;;;4921156;29;19975;-85
2023/01/12 11:59:11;;;;;;;;;;;;;;;;;;4920840;29;20357;-85
2023/01/12 12:01:49;;;;;;;;;;;;;;;;;;4903991;29;20287;-86
2023/01/12 12:04:37;;;;;;;;;;;;;;;;;;4920923;29;19925;-85
2023/01/12 12:07:17;;;;;;;;;;;;;;;;;;4903862;29;19927;-86
2023/01/12 12:09:55;;;;;;;;;;;;;;;;;;4921119;29;19962;-86
2023/01/12 12:12:50;;;;;;;;;;;;;;;;;;4920947;29;19926;-86
2023/01/12 12:15:45;;;;;;;;;;;;;;;;;;4915921;29;19973;-85
2023/01/12 12:18:18;;;;;;;;;;;;;;;;;;4915846;29;19925;-87
2023/01/12 12:20:43;;;;;;;;;;;;;;;;;;4920791;29;19919;-87
2023/01/12 12:23:15;;;;;;;;;;;;;;;;;;4920362;29;20371;-86
2023/01/12 12:25:49;;;;;;;;;;;;;;;;;;4920715;29;19975;-86
2023/01/12 12:28:14;;;;;;;;;;;;;;;;;;4920229;29;19919;-86
2023/01/12 12:30:59;;;;;;;;;;;;;;;;;;4920352;29;19926;-86
2023/01/12 12:33:43;;;;;;;;;;;;;;;;;;4919932;29;20014;-86
2023/01/12 12:36:08;;;;;;;;;;;;;;;;;;4918770;29;19919;-86
2023/01/12 12:38:52;;;;;;;;;;;;;;;;;;4920088;29;19983;-85
2023/01/12 12:47:14;;;;;;;;;;;;;;;;;;4920119;29;19926;-85
2023/01/12 12:49:39;;;;;;;;;;;;;;;;;;4920041;29;20372;-85
2023/01/12 12:52:10;;;;;;;;;;;;;;;;;;4920591;29;19926;-85
2023/01/12 12:54:35;;;;;;;;;;;;;;;;;;4938833;29;20347;-87
2023/01/12 12:57:02;;;;;;;;;;;;;;;;;;4912600;29;19930;-86
2023/01/12 12:59:31;;;;;;;;;;;;;;;;;;4936693;29;19946;-85
2023/01/12 13:01:58;;;;;;;;;;;;;;;;;;4919952;29;20009;-83
2023/01/12 13:04:57;;;;;;;;;;;;;;;;;;4937900;29;19914;-84
2023/01/12 13:07:24;;;;;;;;;;;;;;;;;;4891139;29;20331;-84
2023/01/12 13:09:50;;;;;;;;;;;;;;;;;;4917645;29;19923;-85
2023/01/12 13:13:03;;;;;;;;;;;;;;;;;;4936990;29;19925;-84
2023/01/12 13:16:00;;;;;;;;;;;;;;;;;;4865840;29;19984;-84
2023/01/12 13:19:00;;;;;;;;;;;;;;;;;;4850915;29;20395;-83
2023/01/12 13:21:29;;;;;;;;;;;;;;;;;;4860920;29;19936;-83
2023/01/12 13:24:10;;;;;;;;;;;;;;;;;;4845315;29;19972;-84
2023/01/12 13:26:38;;;;;;;;;;;;;;;;;;4861132;29;19924;-83
2023/01/12 13:29:21;;;;;;;;;;;;;;;;;;4861084;29;20342;-86
2023/01/12 13:31:47;;;;;;;;;;;;;;;;;;4860930;29;19930;-84
2023/01/12 13:34:29;;;;;;;;;;;;;;;;;;4860845;29;20006;-83
2023/01/12 13:37:13;;;;;;;;;;;;;;;;;;4846082;29;19920;-84
2023/01/12 13:39:41;;;;;;;;;;;;;;;;;;4845378;29;19924;-84
2023/01/12 13:44:56;;;;;;;;;;;;;;;;;;4862613;29;19964;-84
2023/01/12 13:47:24;;;;;;;;;;;;;;;;;;4901507;29;19919;-84
2023/01/12 13:49:56;;;;;;;;;;;;;;;;;;4901734;29;20294;-83
2023/01/12 13:52:31;;;;;;;;;;;;;;;;;;4901420;29;19919;-83
2023/01/12 13:54:57;;;;;;;;;;;;;;;;;;4901759;29;20002;-86
2023/01/12 13:57:24;;;;;;;;;;;;;;;;;;4901592;29;20365;-83
2023/01/12 14:00:03;;;;;;;;;;;;;;;;;;4901503;29;19924;-86
2023/01/12 14:02:32;;;;;;;;;;;;;;;;;;4918537;29;20295;-85
2023/01/12 14:05:11;;;;;;;;;;;;;;;;;;4901496;29;19919;-85
2023/01/12 14:07:36;;;;;;;;;;;;;;;;;;4909586;29;19927;-86
2023/01/12 14:10:20;;;;;;;;;;;;;;;;;;4917115;29;19918;-85
2023/01/12 14:12:56;;;;;;;;;;;;;;;;;;4920393;29;19970;-86
2023/01/12 14:18:11;;;;;;;;;;;;;;;;;;4937334;29;19925;-87
2023/01/12 14:20:56;;;;;;;;;;;;;;;;;;4923408;29;19950;-85
2023/01/12 14:23:21;;;;;;;;;;;;;;;;;;4932409;29;19919;-86
2023/01/12 14:26:02;;;;;;;;;;;;;;;;;;4951096;29;19946;-85
2023/01/12 14:28:28;;;;;;;;;;;;;;;;;;4949638;29;20001;-86
2023/01/12 14:30:53;;;;;;;;;;;;;;;;;;4926354;29;19957;-86
2023/01/12 14:33:20;;;;;;;;;;;;;;;;;;4920214;29;20334;-86
2023/01/12 14:35:47;;;;;;;;;;;;;;;;;;4937132;29;19918;-85
2023/01/12 14:38:13;;;;;;;;;;;;;;;;;;4936822;29;20330;-87
2023/01/12 14:40:39;;;;;;;;;;;;;;;;;;4919984;29;19942;-87
2023/01/12 14:48:42;;;;;;;;;;;;;;;;;;4919031;29;20342;-85
2023/01/12 14:51:20;;;;;;;;;;;;;;;;;;4921974;29;19922;-87
2023/01/12 14:53:46;;;;;;;;;;;;;;;;;;4919568;29;19962;-85
2023/01/12 14:56:17;;;;;;;;;;;;;;;;;;4899265;29;19919;-85
2023/01/12 14:58:43;;;;;;;;;;;;;;;;;;4916538;29;19942;-86
2023/01/12 15:01:09;;;;;;;;;;;;;;;;;;4917494;29;19919;-88
2023/01/12 15:03:35;;;;;;;;;;;;;;;;;;4916813;29;19915;-86
2023/01/12 15:06:00;;;;;;;;;;;;;;;;;;4917446;29;20367;-86
2023/01/12 15:08:26;;;;;;;;;;;;;;;;;;4917425;29;19915;-85
2023/01/12 15:10:59;;;;;;;;;;;;;;;;;;4917683;29;19951;-85
2023/01/12 15:13:26;;;;;;;;;;;;;;;;;;4917937;29;19969;-88
2023/01/12 15:27:09;;;;;;;;;;;;;;;;;;4917792;29;20406;-87
2023/01/12 15:29:35;;;;;;;;;;;;;;;;;;4900460;29;19919;-85
2023/01/12 15:32:01;;;;;;;;;;;;;;;;;;4917430;29;19990;-86
2023/01/12 15:34:26;;;;;;;;;;;;;;;;;;4917326;29;20071;-86
2023/01/12 15:36:52;;;;;;;;;;;;;;;;;;4900451;29;20422;-86
2023/01/12 15:39:17;;;;;;;;;;;;;;;;;;4900403;29;20264;-87
2023/01/12 15:44:26;;;;;;;;;;;;;;;;;;4918441;29;19922;-85
2023/01/12 15:46:52;;;;;;;;;;;;;;;;;;4917293;29;19919;-85
2023/01/12 15:49:17;;;;;;;;;;;;;;;;;;4917164;29;19915;-85
2023/01/12 15:51:45;;;;;;;;;;;;;;;;;;4917425;29;20328;-85
2023/01/12 15:54:11;;;;;;;;;;;;;;;;;;4900235;29;19922;-85
2023/01/12 15:56:36;;;;;;;;;;;;;;;;;;4900240;29;19922;-87
2023/01/12 15:59:02;;;;;;;;;;;;;;;;;;4900522;29;19919;-85
2023/01/12 16:01:40;;;;;;;;;;;;;;;;;;4917260;29;19926;-87
2023/01/12 16:04:13;;;;;;;;;;;;;;;;;;4917528;29;19959;-88
2023/01/12 16:06:38;;;;;;;;;;;;;;;;;;4917569;29;19919;-88
2023/01/12 16:09:04;;;;;;;;;;;;;;;;;;4917123;29;19926;-87
2023/01/12 16:11:29;;;;;;;;;;;;;;;;;;4900192;29;19919;-88
2023/01/12 16:13:56;;;;;;;;;;;;;;;;;;4917414;29;20380;-87
2023/01/12 16:16:21;;;;;;;;;;;;;;;;;;4920407;29;19923;-87
2023/01/12 16:18:47;;;;;;;;;;;;;;;;;;4920398;29;19982;-87
2023/01/12 16:21:16;;;;;;;;;;;;;;;;;;4920442;29;19927;-87
2023/01/12 16:23:42;;;;;;;;;;;;;;;;;;4903598;29;20375;-88
2023/01/12 16:26:08;;;;;;;;;;;;;;;;;;4920505;29;19915;-85
2023/01/12 16:28:34;;;;;;;;;;;;;;;;;;4920683;29;20286;-87
2023/01/12 16:31:04;;;;;;;;;;;;;;;;;;4903369;29;19922;-89
2023/01/12 16:33:29;;;;;;;;;;;;;;;;;;4920491;29;19923;-87
2023/01/12 16:35:57;;;;;;;;;;;;;;;;;;4920223;29;20324;-87
2023/01/12 16:38:23;;;;;;;;;;;;;;;;;;4920231;29;20018;-87
2023/01/12 16:40:50;;;;;;;;;;;;;;;;;;4920058;29;19962;-86
2023/01/12 16:43:19;;;;;;;;;;;;;;;;;;4920068;29;19915;-84
2023/01/12 16:45:45;;;;;;;;;;;;;;;;;;4920021;29;20384;-84
2023/01/12 16:48:11;;;;;;;;;;;;;;;;;;4920043;29;19915;-87
2023/01/12 16:50:39;;;;;;;;;;;;;;;;;;4919769;29;20085;-85
2023/01/12 16:53:05;;;;;;;;;;;;;;;;;;4919828;29;20375;-87
2023/01/12 16:55:32;;;;;;;;;;;;;;;;;;4902787;29;19963;-89
2023/01/12 16:57:57;;;;;;;;;;;;;;;;;;4919413;29;19978;-89
2023/01/12 17:00:23;;;;;;;;;;;;;;;;;;4919403;29;19919;-85
2023/01/12 17:02:48;;;;;;;;;;;;;;;;;;4902760;29;19995;-87
2023/01/12 17:05:14;;;;;;;;;;;;;;;;;;4920213;29;19919;-88
2023/01/12 17:07:39;;;;;;;;;;;;;;;;;;4902399;29;20010;-86
2023/01/12 17:10:05;;;;;;;;;;;;;;;;;;4919697;29;19954;-85
2023/01/12 17:12:30;;;;;;;;;;;;;;;;;;4902594;29;19919;-86
2023/01/12 17:14:56;;;;;;;;;;;;;;;;;;4919798;29;19919;-85
2023/01/12 17:17:21;;;;;;;;;;;;;;;;;;4902359;29;19919;-85
2023/01/12 17:19:47;;;;;;;;;;;;;;;;;;4919555;29;20384;-84
2023/01/12 17:22:12;;;;;;;;;;;;;;;;;;4919156;29;19919;-86
2023/01/12 17:24:39;;;;;;;;;;;;;;;;;;4919311;29;19919;-86
2023/01/12 17:27:05;;;;;;;;;;;;;;;;;;4918601;29;19920;-86
2023/01/12 17:29:30;;;;;;;;;;;;;;;;;;4919104;29;19997;-86
2023/01/12 17:32:02;;;;;;;;;;;;;;;;;;4919108;29;19973;-85
2023/01/12 17:34:29;;;;;;;;;;;;;;;;;;4919043;29;20387;-86
2023/01/12 17:36:55;;;;;;;;;;;;;;;;;;4918995;29;19919;-86
2023/01/12 17:39:20;;;;;;;;;;;;;;;;;;4918883;29;19926;-87
2023/01/12 17:44:31;;;;;;;;;;;;;;;;;;4918419;29;20726;-86
2023/01/12 17:46:57;;;;;;;;;;;;;;;;;;4902122;29;20368;-84
2023/01/12 17:49:23;;;;;;;;;;;;;;;;;;4918769;29;20372;-86
2023/01/12 17:51:48;;;;;;;;;;;;;;;;;;4919271;29;20366;-86
2023/01/12 17:54:14;;;;;;;;;;;;;;;;;;4918734;29;19919;-85
2023/01/12 17:56:40;;;;;;;;;;;;;;;;;;4918715;29;19919;-86